createdAt,value
2019-02-02T00:02:10.764Z,26.37
2019-02-02T00:08:12.370Z,26.80
2019-02-02T00:10:54.025Z,28.53
2019-02-02T00:13:36.274Z,28.40
2019-02-02T00:16:25.738Z,27.30
2019-02-02T00:18:56.003Z,26.93
2019-02-02T00:21:41.090Z,29.63
2019-02-02T00:24:25.102Z,28.23
2019-02-02T00:29:37.559Z,26.63
2019-02-02T00:32:19.130Z,30.10
2019-02-02T00:34:49.433Z,30.10
2019-02-02T00:37:19.724Z,30.50
2019-02-02T00:40:12.081Z,31.27
2019-02-02T00:43:04.238Z,30.27
2019-02-02T00:45:34.538Z,29.80
2019-02-02T00:48:06.425Z,29.23
2019-02-02T00:51:09.939Z,29.60
2019-02-02T00:53:52.608Z,30.13
2019-02-02T00:56:25.123Z,29.43
2019-02-02T00:59:06.746Z,30.57
2019-02-02T01:01:48.367Z,30.63
2019-02-02T01:04:19.118Z,31.33
2019-02-02T01:06:49.461Z,30.37
2019-02-02T01:09:31.613Z,30.97
2019-02-02T01:12:14.328Z,30.23
2019-02-02T01:14:45.105Z,31.43
2019-02-02T01:17:17.186Z,31.80
2019-02-02T01:19:58.868Z,30.73
2019-02-02T01:22:40.782Z,29.60
2019-02-02T01:25:12.134Z,30.17
2019-02-02T01:27:42.396Z,29.13
2019-02-02T01:30:32.053Z,30.30
2019-02-02T01:33:02.399Z,30.67
2019-02-02T01:35:32.675Z,29.83
2019-02-02T01:38:02.976Z,30.70
2019-02-02T01:40:53.990Z,29.13
2019-02-02T01:43:24.273Z,30.10
2019-02-02T01:45:56.187Z,30.60
2019-02-02T01:48:26.427Z,29.63
2019-02-02T01:51:10.677Z,29.37
2019-02-02T01:53:48.225Z,30.73
2019-02-02T01:56:21.015Z,28.57
2019-02-02T01:58:51.360Z,29.83
2019-02-02T02:01:36.406Z,30.07
2019-02-02T02:04:18.695Z,29.57
2019-02-02T02:06:52.009Z,30.97
2019-02-02T02:09:22.279Z,30.33
2019-02-02T02:12:04.479Z,31.93
2019-02-02T02:14:46.139Z,31.17
2019-02-02T02:17:17.262Z,32.53
2019-02-02T02:19:47.635Z,32.10
2019-02-02T02:25:08.443Z,32.37
2019-02-02T02:27:38.840Z,30.93
2019-02-02T02:30:21.795Z,33.27
2019-02-02T02:32:53.544Z,31.20
2019-02-02T02:35:23.924Z,32.90
2019-02-02T02:37:54.239Z,32.70
2019-02-02T02:40:26.415Z,30.57
2019-02-02T02:49:24.190Z,30.20
2019-02-02T02:51:54.719Z,31.70
2019-02-02T02:54:24.945Z,31.90
2019-02-02T02:57:13.120Z,33.97
2019-02-02T02:59:45.283Z,32.13
2019-02-02T03:02:17.840Z,33.37
2019-02-02T03:05:07.704Z,33.97
2019-02-02T03:07:38.087Z,31.43
2019-02-02T03:10:10.466Z,34.57
2019-02-02T03:12:52.829Z,34.83
2019-02-02T03:15:35.183Z,34.97
2019-02-02T03:18:07.096Z,35.03
2019-02-02T03:23:53.393Z,35.57
2019-02-02T03:26:23.777Z,32.27
2019-02-02T03:31:55.425Z,33.30
2019-02-02T03:34:25.700Z,34.87
2019-02-02T03:36:55.966Z,34.63
2019-02-02T03:39:38.452Z,37.47
2019-02-02T03:42:21.239Z,34.00
2019-02-02T03:44:51.499Z,34.70
2019-02-02T03:47:21.722Z,33.37
2019-02-02T03:50:11.353Z,35.80
2019-02-02T03:52:42.588Z,34.77
2019-02-02T03:55:15.810Z,35.07
2019-02-02T03:57:58.891Z,33.70
2019-02-02T04:00:41.212Z,33.23
2019-02-02T04:03:11.509Z,33.90
2019-02-02T04:05:49.068Z,34.03
2019-02-02T04:11:21.639Z,32.00
2019-02-02T04:14:06.161Z,33.47
2019-02-02T04:16:40.776Z,30.87
2019-02-02T04:19:30.175Z,30.77
2019-02-02T04:22:00.443Z,31.10
2019-02-02T04:24:33.595Z,31.93
2019-02-02T04:27:03.858Z,32.47
2019-02-02T04:29:46.025Z,30.93
2019-02-02T04:32:28.217Z,29.37
2019-02-02T04:34:58.498Z,30.30
2019-02-02T04:37:28.714Z,29.40
2019-02-02T04:40:18.707Z,30.53
2019-02-02T04:45:30.048Z,30.87
2019-02-02T04:48:01.959Z,29.27
2019-02-02T04:50:32.272Z,30.10
2019-02-02T04:53:02.483Z,31.60
2019-02-02T04:56:11.271Z,30.53
2019-02-02T04:58:41.502Z,30.00
2019-02-02T05:01:11.822Z,30.33
2019-02-02T05:03:42.050Z,30.77
2019-02-02T05:06:31.675Z,31.47
2019-02-02T05:09:02.376Z,30.87
2019-02-02T05:11:34.281Z,30.60
2019-02-02T05:14:04.546Z,31.93
2019-02-02T05:16:54.550Z,31.73
2019-02-02T05:19:25.547Z,32.80
2019-02-02T05:21:58.987Z,33.50
2019-02-02T05:24:51.173Z,33.63
2019-02-02T05:27:21.473Z,31.30
2019-02-02T05:29:51.776Z,33.67
2019-02-02T05:32:22.038Z,32.07
2019-02-02T05:35:11.665Z,31.77
2019-02-02T05:37:41.944Z,31.70
2019-02-02T05:40:15.205Z,31.87
2019-02-02T05:42:47.425Z,30.20
2019-02-02T05:48:42.341Z,32.13
2019-02-02T05:51:23.650Z,31.07
2019-02-02T05:53:53.975Z,33.13
2019-02-02T05:56:35.603Z,33.07
2019-02-02T05:59:24.752Z,31.93
2019-02-02T06:01:55.084Z,34.40
2019-02-02T06:04:37.991Z,33.10
2019-02-02T06:07:21.684Z,31.53
2019-02-02T06:09:52.097Z,33.90
2019-02-02T06:12:22.287Z,34.27
2019-02-02T06:15:04.162Z,36.13
2019-02-02T06:17:46.488Z,37.03
2019-02-02T06:20:18.856Z,36.17
2019-02-02T06:23:10.260Z,33.33
2019-02-02T06:25:40.566Z,34.30
2019-02-02T06:28:10.812Z,34.83
2019-02-02T06:31:03.015Z,34.50
2019-02-02T06:36:12.966Z,35.37
2019-02-02T06:38:55.454Z,34.93
2019-02-02T06:41:25.979Z,33.70
2019-02-02T06:44:07.489Z,33.93
2019-02-02T06:46:49.768Z,33.00
2019-02-02T06:49:20.125Z,32.03
2019-02-02T06:51:50.610Z,32.90
2019-02-02T06:54:22.643Z,32.47
2019-02-02T06:56:53.440Z,33.00
2019-02-02T06:59:23.811Z,32.67
2019-02-02T07:02:05.395Z,33.23
2019-02-02T07:04:53.006Z,31.30
2019-02-02T07:07:23.328Z,30.83
2019-02-02T07:09:55.194Z,32.23
2019-02-02T07:12:40.460Z,32.93
2019-02-02T07:15:24.019Z,32.93
2019-02-02T07:21:16.169Z,31.53
2019-02-02T07:23:46.454Z,31.87
2019-02-02T07:26:16.666Z,33.83
2019-02-02T07:28:58.885Z,33.17
2019-02-02T07:31:41.266Z,32.27
2019-02-02T07:34:11.592Z,33.77
2019-02-02T07:36:41.878Z,32.87
2019-02-02T07:39:23.338Z,33.57
2019-02-02T07:42:05.467Z,33.53
2019-02-02T07:44:35.719Z,33.60
2019-02-02T07:47:25.368Z,34.00
2019-02-02T07:49:55.677Z,32.67
2019-02-02T07:55:41.914Z,36.60
2019-02-02T07:58:31.274Z,37.27
2019-02-02T08:01:01.733Z,36.40
2019-02-02T08:03:49.358Z,36.53
2019-02-02T08:06:22.784Z,36.67
2019-02-02T08:12:14.549Z,37.53
2019-02-02T08:15:04.011Z,37.00
2019-02-02T08:17:35.258Z,36.40
2019-02-02T08:20:26.436Z,36.33
2019-02-02T08:22:59.090Z,36.30
2019-02-02T08:25:29.326Z,36.43
2019-02-02T08:28:33.861Z,37.53
2019-02-02T08:31:19.615Z,39.00
2019-02-02T08:33:52.373Z,36.47
2019-02-02T08:36:24.848Z,37.30
2019-02-02T08:41:57.080Z,38.40
2019-02-02T08:44:29.597Z,35.53
2019-02-02T08:47:18.828Z,36.93
2019-02-02T08:49:52.025Z,39.33
2019-02-02T08:52:23.959Z,40.37
2019-02-02T08:54:54.104Z,30.77
2019-02-02T08:57:24.397Z,26.00
2019-02-02T09:00:15.711Z,26.40
2019-02-02T09:02:46.221Z,26.20
2019-02-02T09:08:52.458Z,29.63
2019-02-02T09:11:25.461Z,30.57
2019-02-02T09:13:55.743Z,31.70
2019-02-02T09:16:59.053Z,29.87
2019-02-02T09:19:29.345Z,29.83
2019-02-02T09:22:01.661Z,31.27
2019-02-02T09:25:29.754Z,30.63
2019-02-02T09:28:00.480Z,32.10
2019-02-02T09:30:53.308Z,28.57
2019-02-02T09:36:26.624Z,20.20
2019-02-02T09:39:16.176Z,19.97
2019-02-02T09:41:46.587Z,23.20
2019-02-02T09:47:43.293Z,22.93
2019-02-02T09:50:34.841Z,21.57
2019-02-02T09:53:18.733Z,23.23
2019-02-02T09:56:00.479Z,22.17
2019-02-02T10:04:26.027Z,17.67
2019-02-02T10:06:58.059Z,17.70
2019-02-02T10:09:45.533Z,16.30
2019-02-02T10:18:41.706Z,16.93
2019-02-02T10:21:31.388Z,16.13
2019-02-02T10:26:56.359Z,18.03
2019-02-02T10:29:42.747Z,18.10
2019-02-02T10:35:16.394Z,18.93
2019-02-02T10:38:05.901Z,26.93
2019-02-02T10:43:51.388Z,20.03
2019-02-02T10:46:21.719Z,20.17
2019-02-02T10:52:12.934Z,20.27
2019-02-02T10:54:43.290Z,20.90
2019-02-02T10:57:16.224Z,19.87
2019-02-02T11:00:00.109Z,21.27
2019-02-02T11:02:31.041Z,20.50
2019-02-02T11:05:01.726Z,21.47
2019-02-02T11:10:38.279Z,21.43
2019-02-02T11:13:37.781Z,21.97
2019-02-02T11:28:20.203Z,21.17
2019-02-02T11:31:19.029Z,21.20
2019-02-02T11:37:32.182Z,21.73
2019-02-02T11:43:01.188Z,22.07
2019-02-02T11:45:57.980Z,22.13
2019-02-02T11:48:41.067Z,23.13
2019-02-02T11:51:38.257Z,22.20
2019-02-02T11:54:24.894Z,23.23
2019-02-02T11:56:55.553Z,21.80
2019-02-02T11:59:33.430Z,22.80
2019-02-02T12:02:31.950Z,23.93
2019-02-02T12:05:24.791Z,26.63
2019-02-02T12:07:59.579Z,29.13
2019-02-02T12:10:46.157Z,26.17
2019-02-02T12:13:39.538Z,27.43
2019-02-02T12:17:12.071Z,32.57
2019-02-02T12:25:57.504Z,25.33
2019-02-02T12:28:29.440Z,27.80
2019-02-02T12:31:11.844Z,26.53
2019-02-02T12:39:44.699Z,27.57
2019-02-02T12:42:16.573Z,26.07
2019-02-02T12:45:47.580Z,26.17
2019-02-02T12:48:38.220Z,27.20
2019-02-02T12:51:10.083Z,26.93
2019-02-02T12:53:40.706Z,27.00
2019-02-02T12:56:49.173Z,25.73
2019-02-02T12:59:57.067Z,27.80
2019-02-02T13:02:45.373Z,27.43
2019-02-02T13:05:29.435Z,26.30
2019-02-02T13:08:05.004Z,26.83
2019-02-02T13:16:27.615Z,27.20
2019-02-02T13:19:33.953Z,26.03
2019-02-02T13:28:05.753Z,27.10
2019-02-02T13:33:46.441Z,25.47
2019-02-02T13:40:46.865Z,25.77
2019-02-02T13:43:17.462Z,26.53
2019-02-02T13:45:47.679Z,29.53
2019-02-02T13:48:18.259Z,28.80
2019-02-02T13:51:19.092Z,26.83
2019-02-02T13:54:21.846Z,26.43
2019-02-02T14:00:16.071Z,25.00
2019-02-02T14:03:01.457Z,24.60
2019-02-02T14:06:08.884Z,27.07
2019-02-02T14:08:39.194Z,26.80
2019-02-02T14:11:21.553Z,29.93
2019-02-02T14:25:12.676Z,29.20
2019-02-02T14:27:57.366Z,29.77
2019-02-02T14:30:28.246Z,30.23
2019-02-02T14:51:17.007Z,29.57
2019-02-02T14:54:07.041Z,29.83
2019-02-02T14:59:21.288Z,26.43
2019-02-02T15:01:53.286Z,29.50
2019-02-02T15:07:51.858Z,28.33
2019-02-02T15:10:23.335Z,26.63
2019-02-02T15:13:15.977Z,29.23
2019-02-02T15:18:56.161Z,30.43
2019-02-02T15:34:42.668Z,32.03
2019-02-02T15:37:32.615Z,29.67
2019-02-02T15:40:34.070Z,31.20
2019-02-02T15:43:27.231Z,30.40
2019-02-02T15:46:18.568Z,33.10
2019-02-02T15:49:26.853Z,30.53
2019-02-02T15:54:41.057Z,35.10
2019-02-02T15:57:22.357Z,33.30
2019-02-02T16:00:06.417Z,33.83
2019-02-02T16:06:37.539Z,34.50
2019-02-02T16:12:29.768Z,32.83
2019-02-02T16:15:19.320Z,32.03
2019-02-02T16:17:49.726Z,32.80
2019-02-02T16:20:27.025Z,33.50
2019-02-02T16:25:58.108Z,31.67
2019-02-02T16:28:39.845Z,32.30
2019-02-02T16:31:10.195Z,32.80
2019-02-02T16:33:41.425Z,32.03
2019-02-02T16:36:44.375Z,31.20
2019-02-02T16:39:16.999Z,31.30
2019-02-02T16:41:47.268Z,32.67
2019-02-02T16:44:33.495Z,32.90
2019-02-02T16:47:03.815Z,31.57
2019-02-02T16:52:26.226Z,30.77
2019-02-02T16:54:58.795Z,31.00
2019-02-02T16:57:29.085Z,32.07
2019-02-02T17:03:11.922Z,31.30
2019-02-02T17:08:47.079Z,31.97
2019-02-02T17:14:22.305Z,30.87
2019-02-02T17:16:54.429Z,29.63
2019-02-02T17:19:45.132Z,31.57
2019-02-02T17:28:30.443Z,29.70
2019-02-02T17:34:26.954Z,30.30
2019-02-02T17:37:18.267Z,30.60
2019-02-02T17:39:48.634Z,28.53
2019-02-02T17:45:33.588Z,29.67
2019-02-02T17:48:07.564Z,31.83
2019-02-02T17:51:09.112Z,30.30
2019-02-02T17:53:39.587Z,28.23
2019-02-02T17:56:11.904Z,31.27
2019-02-02T17:58:53.643Z,30.90
2019-02-02T18:01:36.999Z,30.70
2019-02-02T18:07:30.385Z,28.43
2019-02-02T18:10:02.723Z,27.87
2019-02-02T18:13:06.413Z,28.70
2019-02-02T18:15:40.128Z,26.63
2019-02-02T18:18:15.073Z,28.90
2019-02-02T18:21:22.732Z,27.77
2019-02-02T18:24:12.826Z,28.33
2019-02-02T18:26:43.098Z,27.97
2019-02-02T18:29:28.259Z,27.60
2019-02-02T18:35:01.358Z,25.93
2019-02-02T18:38:11.760Z,28.37
2019-02-02T18:43:48.887Z,25.93
2019-02-02T18:46:48.929Z,24.50
2019-02-02T18:49:19.217Z,25.20
2019-02-02T18:52:06.897Z,28.50
2019-02-02T18:54:39.095Z,35.23
2019-02-02T19:00:33.642Z,29.23
2019-02-02T19:09:51.762Z,26.43
2019-02-02T19:12:22.370Z,30.30
2019-02-02T19:14:52.928Z,28.03
2019-02-02T19:17:36.991Z,30.67
2019-02-02T19:20:27.441Z,28.83
2019-02-02T19:23:24.877Z,30.60
2019-02-02T19:26:14.095Z,26.90
2019-02-02T19:31:21.643Z,25.47
2019-02-02T19:34:06.624Z,24.77
2019-02-02T19:39:41.150Z,28.87
2019-02-02T19:42:23.492Z,30.60
2019-02-02T19:45:31.965Z,30.00
2019-02-02T19:48:17.175Z,28.10
2019-02-02T19:50:56.475Z,27.43
2019-02-02T19:53:31.857Z,27.73
2019-02-02T19:59:41.307Z,27.50
2019-02-02T20:11:22.109Z,24.13
2019-02-02T20:17:15.102Z,25.60
2019-02-02T20:19:47.234Z,22.13
2019-02-02T20:28:27.996Z,24.33
2019-02-02T20:33:52.494Z,26.73
2019-02-02T20:36:41.905Z,25.83
2019-02-02T20:42:50.045Z,25.10
2019-02-02T20:48:35.100Z,24.10
2019-02-02T20:54:04.270Z,23.63
2019-02-02T20:56:36.257Z,23.70
2019-02-02T20:59:27.994Z,24.07
2019-02-02T21:02:11.220Z,23.60
2019-02-02T21:05:16.047Z,22.63
2019-02-02T21:10:30.028Z,24.10
2019-02-02T21:13:12.400Z,25.63
2019-02-02T21:21:52.420Z,24.40
2019-02-02T21:24:41.874Z,27.83
2019-02-02T21:33:27.238Z,24.73
2019-02-02T21:39:01.274Z,27.40
2019-02-02T21:42:15.345Z,29.10
2019-02-02T21:44:48.056Z,29.47
2019-02-02T21:47:39.041Z,32.73
2019-02-02T21:50:31.981Z,29.90
2019-02-02T21:58:52.993Z,31.40
2019-02-02T22:04:30.515Z,30.40
2019-02-02T22:07:01.225Z,31.93
2019-02-02T22:09:38.553Z,32.87
2019-02-02T22:15:53.847Z,31.50
2019-02-02T22:18:34.709Z,31.97
2019-02-02T22:21:27.148Z,30.03
2019-02-02T22:24:08.464Z,30.27
2019-02-02T22:26:41.653Z,29.87
2019-02-02T22:29:24.022Z,30.70
2019-02-02T22:32:07.248Z,29.47
2019-02-02T22:34:39.982Z,30.40
2019-02-02T22:37:10.269Z,30.33
2019-02-02T22:39:54.947Z,29.00
2019-02-02T22:42:43.033Z,34.10
2019-02-02T22:45:20.505Z,29.93
2019-02-02T22:48:02.939Z,31.50
2019-02-02T22:50:35.949Z,31.37
2019-02-02T22:53:06.224Z,29.70
2019-02-02T22:55:50.769Z,29.90
2019-02-02T22:58:33.427Z,31.93
2019-02-02T23:01:57.537Z,32.13
2019-02-02T23:04:25.134Z,32.23
2019-02-02T23:07:45.978Z,30.43
2019-02-02T23:11:07.131Z,29.63
2019-02-02T23:14:08.617Z,27.67
2019-02-02T23:19:39.786Z,30.40
2019-02-02T23:22:11.714Z,31.87
2019-02-02T23:24:53.400Z,31.57
2019-02-02T23:31:05.953Z,32.93
2019-02-02T23:33:42.155Z,32.00
2019-02-02T23:36:12.507Z,33.57
2019-02-02T23:38:56.314Z,33.63
2019-02-02T23:41:26.591Z,32.77
2019-02-02T23:47:18.267Z,32.90
2019-02-02T23:49:51.274Z,40.30
2019-02-02T23:52:21.513Z,41.13
2019-02-02T23:55:07.298Z,48.47
2019-02-02T23:57:38.349Z,45.10
